Time;durP1;ratioP1;P1;durP2;ratioP2;P2;SDS_P1;SDS_P2;PMS_P1;PMS_P2;Temp;Humidity;BMP_temperature;BMP_pressure;BME280_temperature;BME280_humidity;BME280_pressure;Samples;Min_cycle;Max_cycle;Signal;HPM_P1;HPM_P2
2021/05/28 00:04:20;;;;;;;3.83;3.10;;;;;;;9.91;65.57;98828.01;260639;1104;23258;-70
2021/05/28 00:10:04;;;;;;;3.73;3.27;;;;;;;9.91;65.81;98824.55;261352;1104;22752;-70
2021/05/28 00:16:32;;;;;;;;;;;;;;;;;;;;;
2021/05/28 00:21:57;;;;;;;4.40;2.80;;;;;;;9.89;66.12;98850.77;261002;1104;22809;-70
2021/05/28 00:27:43;;;;;;;5.67;3.73;;;;;;;9.91;66.41;98837.92;261031;1100;22916;-72
2021/05/28 00:32:54;;;;;;;5.00;3.20;;;;;;;9.94;66.41;98842.70;260260;1104;24293;-70
2021/05/28 00:38:19;;;;;;;5.97;3.63;;;;;;;9.89;66.78;98838.21;260366;1104;22923;-70
2021/05/28 00:43:52;;;;;;;4.70;3.70;;;;;;;9.85;66.51;98841.70;261097;1099;27667;-70
2021/05/28 00:50:19;;;;;;;3.50;3.20;;;;;;;9.79;66.86;98840.17;261080;1099;26216;-69
2021/05/28 00:56:13;;;;;;;4.30;3.83;;;;;;;9.71;67.52;98841.56;260198;1104;22980;-73
2021/05/28 01:02:01;;;;;;;;;;;;;;;;;;;;;
2021/05/28 01:08:34;;;;;;;6.93;4.67;;;;;;;9.51;67.90;98855.91;260488;1099;26289;-69
2021/05/28 01:13:46;;;;;;;4.00;3.60;;;;;;;9.35;67.98;98861.36;261051;1104;22771;-70
2021/05/28 01:19:01;;;;;;;6.00;4.40;;;;;;;9.25;68.27;98864.11;260242;1104;22819;-70
2021/05/28 01:24:11;;;;;;;4.90;4.00;;;;;;;9.21;68.70;98855.84;261073;1099;22825;-70
2021/05/28 01:29:44;;;;;;;5.07;4.50;;;;;;;9.08;69.07;98856.47;260282;1104;22778;-70
2021/05/28 01:36:29;;;;;;;4.83;4.30;;;;;;;8.95;69.18;98860.52;261040;1099;22771;-69
2021/05/28 01:42:11;;;;;;;5.30;4.35;;;;;;;8.78;69.09;98850.19;260256;1104;22760;-70
2021/05/28 01:47:48;;;;;;;6.60;4.95;;;;;;;8.54;69.51;98858.83;260279;1099;22760;-70
2021/05/28 01:53:15;;;;;;;7.10;5.05;;;;;;;8.37;70.26;98864.46;260330;1104;22777;-70
2021/05/28 01:58:36;;;;;;;7.25;5.70;;;;;;;8.26;70.99;98867.44;261103;1100;24200;-70
2021/05/28 02:04:08;;;;;;;8.07;5.37;;;;;;;8.15;70.86;98867.44;260990;1100;27587;-69
2021/05/28 02:10:01;;;;;;;7.67;5.27;;;;;;;8.13;71.70;98866.92;260361;1099;22810;-70
2021/05/28 02:15:47;;;;;;;7.60;5.77;;;;;;;8.21;72.20;98871.72;260221;1099;22754;-70
2021/05/28 02:34:55;;;;;;;8.10;5.77;;;;;;;8.18;71.66;98866.92;260706;1104;22770;-71
2021/05/28 02:40:26;;;;;;;10.80;6.30;;;;;;;8.23;72.20;98868.78;261163;1104;22756;-69
2021/05/28 02:45:49;;;;;;;8.00;5.73;;;;;;;8.20;72.13;98878.12;261155;1104;22848;-70
2021/05/28 02:51:31;;;;;;;10.63;6.90;;;;;;;8.17;71.94;98885.85;260226;1104;22768;-71
2021/05/28 02:57:11;;;;;;;9.23;6.33;;;;;;;8.05;72.01;98889.61;260873;1105;22828;-69
2021/05/28 03:02:56;;;;;;;7.37;5.17;;;;;;;7.97;72.27;98902.69;261015;1104;22742;-70
2021/05/28 03:08:35;;;;;;;8.83;5.30;;;;;;;7.87;73.29;98909.62;260219;1100;22759;-70
2021/05/28 03:13:48;;;;;;;;;;;;;;;7.73;72.84;98910.43;260271;1104;22754;-69
2021/05/28 03:19:19;;;;;;;11.80;7.13;;;;;;;7.46;73.35;98914.14;260327;1104;21465;-70
2021/05/28 03:32:45;;;;;;;9.20;6.40;;;;;;;7.64;74.24;98912.80;260082;1104;24296;-70
2021/05/28 03:38:41;;;;;;;8.50;5.73;;;;;;;7.99;74.19;98912.03;261164;1099;22759;-69
2021/05/28 03:44:36;;;;;;;6.65;5.35;;;;;;;8.40;73.68;98916.52;260393;1099;25729;-70
2021/05/28 03:50:52;;;;;;;6.47;5.03;;;;;;;9.18;73.61;98914.41;260554;1099;22774;-69
2021/05/28 03:57:05;;;;;;;;;;;;;;;;;;;;;
2021/05/28 04:03:59;;;;;;;;;;;;;;;;;;;;;
2021/05/28 04:09:45;;;;;;;5.40;4.07;;;;;;;10.58;70.07;98929.11;260389;1104;22829;-70
2021/05/28 04:15:53;;;;;;;3.87;3.50;;;;;;;10.44;69.84;98928.98;261072;1100;22775;-70
2021/05/28 04:22:20;;;;;;;6.10;4.47;;;;;;;10.19;69.83;98926.53;260342;1099;27562;-69
2021/05/28 04:28:30;;;;;;;;;;;;;;;;;;;;;
2021/05/28 04:34:22;;;;;;;5.23;4.50;;;;;;;9.88;70.41;98926.80;261017;1104;24037;-71
2021/05/28 04:40:28;;;;;;;;;;;;;;;;;;;;;
2021/05/28 04:47:25;;;;;;;;;;;;;;;;;;;;;
2021/05/28 04:53:30;;;;;;;5.25;4.65;;;;;;;10.30;70.89;98933.39;261037;1098;26057;-70
2021/05/28 04:59:09;;;;;;;5.27;4.77;;;;;;;10.50;70.89;98934.30;261052;1100;25883;-70
2021/05/28 05:05:10;;;;;;;6.00;5.40;;;;;;;10.66;70.49;98940.28;261050;1104;22785;-69
2021/05/28 05:10:48;;;;;;;8.70;6.10;;;;;;;10.97;70.69;98943.43;260231;1104;22824;-70
2021/05/28 05:16:49;;;;;;;;;;;;;;;;;;;;;
2021/05/28 05:22:04;;;;;;;6.60;5.73;;;;;;;11.80;70.02;98957.31;260388;1099;25868;-70
2021/05/28 05:33:52;;;;;;;7.57;6.07;;;;;;;12.84;68.62;98967.13;261361;1104;22929;-69
2021/05/28 05:39:38;;;;;;;7.70;6.20;;;;;;;13.21;67.86;98964.52;260113;1104;22757;-70
2021/05/28 05:45:57;;;;;;;6.25;5.28;;;;;;;13.61;67.35;98975.55;259686;1100;23657;-69
2021/05/28 05:51:32;;;;;;;7.00;5.00;;;;;;;13.79;66.06;98982.66;261986;1100;23393;-69
2021/05/28 05:57:30;;;;;;;5.50;4.20;;;;;;;13.96;65.55;98979.34;262174;1099;22870;-68
2021/05/28 06:03:36;;;;;;;5.67;3.10;;;;;;;14.27;64.22;98983.16;262214;1104;22774;-70
2021/05/28 06:09:27;;;;;;;6.65;3.03;;;;;;;14.33;62.62;98981.95;262480;1104;22754;-71
2021/05/28 06:15:22;;;;;;;3.67;2.90;;;;;;;14.09;62.34;98971.48;262386;1104;22751;-72
2021/05/28 06:21:08;;;;;;;;;;;;;;;;;;;;;
2021/05/28 06:33:09;;;;;;;2.95;2.70;;;;;;;13.88;61.49;98979.25;262304;1100;24276;-71
2021/05/28 06:44:43;;;;;;;3.60;2.75;;;;;;;13.79;61.00;98979.97;261551;1098;22835;-71
2021/05/28 06:50:37;;;;;;;5.10;2.90;;;;;;;13.88;61.31;98984.63;261730;1100;22758;-72
2021/05/28 06:56:36;;;;;;;3.05;2.75;;;;;;;13.99;60.71;98977.91;261604;1104;23489;-71
2021/05/28 07:02:22;;;;;;;2.83;2.63;;;;;;;14.28;60.65;98980.16;261817;1100;22750;-71
2021/05/28 07:08:48;;;;;;;;;;;;;;;;;;;;;
2021/05/28 07:14:21;;;;;;;;;;;;;;;;;;;;;
2021/05/28 07:20:35;;;;;;;3.10;2.80;;;;;;;15.73;58.14;98988.61;261564;1104;22901;-71
2021/05/28 07:26:34;;;;;;;;;;;;;;;;;;;;;
2021/05/28 07:32:09;;;;;;;3.30;3.00;;;;;;;15.48;56.38;98994.79;261861;1104;22767;-71
2021/05/28 07:38:46;;;;;;;2.45;2.25;;;;;;;15.19;56.75;98996.95;261457;1104;22774;-71
2021/05/28 07:45:39;;;;;;;;;;;;;;;;;;;;;
2021/05/28 07:58:24;;;;;;;1.70;1.40;;;;;;;15.82;56.29;98982.45;261676;1098;26359;-72
2021/05/28 08:03:57;;;;;;;1.50;1.20;;;;;;;16.21;55.30;98989.56;262375;1104;22754;-72
2021/05/28 08:11:02;;;;;;;2.13;1.85;;;;;;;16.67;54.87;98971.00;261823;1104;23535;-72
2021/05/28 08:17:34;;;;;;;2.10;2.00;;;;;;;17.01;54.02;98973.91;261335;1104;23805;-71
2021/05/28 08:23:45;;;;;;;;;;;;;;;;;;;;;
2021/05/28 08:30:16;;;;;;;2.10;1.90;;;;;;;17.04;52.20;98971.36;261043;1100;22762;-71
2021/05/28 08:35:43;;;;;;;1.80;1.70;;;;;;;16.71;52.20;98971.16;261417;1104;22713;-71
2021/05/28 08:41:12;;;;;;;1.70;1.60;;;;;;;16.18;51.78;98978.61;261713;1104;22832;-71
2021/05/28 08:46:52;;;;;;;;;;;;;;;;;;;;;
2021/05/28 08:58:46;;;;;;;3.63;3.20;;;;;;;15.04;55.72;98989.30;261381;1104;22815;-72
2021/05/28 09:05:01;;;;;;;3.33;2.63;;;;;;;15.13;55.84;98994.71;261346;1099;22826;-72
2021/05/28 09:11:18;;;;;;;4.25;2.60;;;;;;;15.29;55.81;98993.17;261671;1098;25870;-72
2021/05/28 09:17:41;;;;;;;2.30;2.10;;;;;;;15.65;56.14;98983.21;261518;1100;22822;-71
2021/05/28 09:23:32;;;;;;;2.95;1.90;;;;;;;16.17;55.22;98980.53;261547;1099;25945;-72
2021/05/28 09:29:13;;;;;;;2.45;1.80;;;;;;;16.45;54.55;98979.34;261806;1104;22790;-71
2021/05/28 09:34:29;;;;;;;2.25;1.95;;;;;;;16.52;54.11;98979.64;262099;1104;22782;-72
2021/05/28 09:40:49;;;;;;;2.63;1.90;;;;;;;16.22;53.79;98983.05;261806;1104;22770;-72
2021/05/28 09:52:56;;;;;;;5.10;2.40;;;;;;;16.55;53.29;98985.20;261607;1104;22923;-72
2021/05/28 09:59:12;;;;;;;;;;;;;;;;;;;;;
2021/05/28 10:05:22;;;;;;;2.40;2.20;;;;;;;17.66;51.14;98979.09;261676;1104;22754;-71
2021/05/28 10:11:18;;;;;;;1.40;1.30;;;;;;;17.56;49.75;98972.94;261456;1104;22797;-70
2021/05/28 10:17:25;;;;;;;2.00;1.87;;;;;;;17.64;50.18;98963.15;260752;1105;22813;-71
2021/05/28 10:23:03;;;;;;;2.27;2.03;;;;;;;17.85;49.98;98948.80;260758;1100;22772;-71
2021/05/28 10:29:39;;;;;;;3.25;2.70;;;;;;;18.37;49.92;98955.66;260728;1105;23074;-72
2021/05/28 10:42:50;;;;;;;2.00;1.80;;;;;;;18.60;47.82;98956.83;261651;1098;27024;-72
2021/05/28 10:49:21;;;;;;;;;;;;;;;;;;;;;
2021/05/28 10:56:04;;;;;;;;;;;;;;;;;;;;;
2021/05/28 11:02:11;;;;;;;2.90;2.60;;;;;;;17.75;47.76;98975.20;261264;1104;22912;-72
2021/05/28 11:08:57;;;;;;;5.10;4.30;;;;;;;16.65;49.57;99003.00;261360;1104;22886;-72
2021/05/28 11:21:46;;;;;;;4.60;3.10;;;;;;;15.07;52.43;98985.97;261473;1100;26413;-73
2021/05/28 11:28:52;;;;;;;3.40;2.60;;;;;;;14.80;53.54;98962.69;261572;1104;22762;-74
2021/05/28 11:35:56;;;;;;;3.53;2.60;;;;;;;15.10;53.87;98962.97;261491;1100;26261;-73
2021/05/28 11:41:21;;;;;;;2.00;1.57;;;;;;;15.64;52.62;98960.82;261281;1100;22763;-73
2021/05/28 11:47:52;;;;;;;;;;;;;;;;;;;;;
2021/05/28 11:54:50;;;;;;;1.60;1.03;;;;;;;17.03;50.24;98952.74;261578;1104;22771;-73
2021/05/28 12:01:21;;;;;;;0.90;0.90;;;;;;;17.70;48.52;98944.81;261332;1104;23006;-73
2021/05/28 12:07:35;;;;;;;;;;;;;;;;;;;;;
2021/05/28 12:13:41;;;;;;;1.20;0.80;;;;;;;18.42;46.45;98948.09;261702;1104;22828;-73
2021/05/28 12:19:30;;;;;;;;;;;;;;;;;;;;;
2021/05/28 12:25:51;;;;;;;1.60;1.50;;;;;;;18.62;44.20;98956.48;261322;1104;23204;-72
2021/05/28 12:31:27;;;;;;;;;;;;;;;18.46;44.36;98951.72;261694;1099;25995;-74
2021/05/28 12:37:10;;;;;;;1.20;1.20;;;;;;;18.29;44.00;98951.93;261735;1100;21510;-72
2021/05/28 12:43:49;;;;;;;1.50;1.40;;;;;;;18.30;43.56;98942.67;261581;1100;22765;-72
2021/05/28 12:50:11;;;;;;;1.20;1.20;;;;;;;18.01;43.88;98949.02;261804;1104;22939;-73
2021/05/28 12:56:20;;;;;;;1.40;1.30;;;;;;;17.71;43.80;98958.02;261874;1099;25893;-73
2021/05/28 13:10:06;;;;;;;1.60;1.50;;;;;;;15.55;49.40;98968.89;261099;1104;22748;-73
2021/05/28 13:17:04;;;;;;;;;;;;;;;;;;;;;
2021/05/28 13:23:38;;;;;;;2.10;1.70;;;;;;;15.21;53.39;98988.55;261702;1099;22789;-72
2021/05/28 13:29:25;;;;;;;1.75;1.65;;;;;;;15.77;53.15;98977.98;261565;1104;22766;-71
2021/05/28 13:34:56;;;;;;;;;;;;;;;;;;;;;
2021/05/28 13:41:05;;;;;;;;;;;;;;;;;;;;;
2021/05/28 13:46:42;;;;;;;;;;;;;;;;;;;;;
2021/05/28 13:52:43;;;;;;;1.00;1.00;;;;;;;18.01;48.18;98954.45;261686;1104;23556;-71
2021/05/28 13:58:13;;;;;;;;;;;;;;;;;;;;;
2021/05/28 14:03:47;;;;;;;;;;;;;;;;;;;;;
2021/05/28 14:16:18;;;;;;;;;;;;;;;;;;;;;
2021/05/28 14:22:00;;;;;;;0.80;0.80;;;;;;;17.88;45.10;98934.59;261268;1100;26337;-73
2021/05/28 14:35:45;;;;;;;0.70;0.70;;;;;;;18.01;45.05;98957.16;261243;1099;26346;-72
2021/05/28 14:41:27;;;;;;;2.10;1.50;;;;;;;18.23;44.49;98956.77;261246;1104;22803;-72
2021/05/28 14:46:55;;;;;;;;;;;;;;;;;;;;;
2021/05/28 14:52:08;;;;;;;0.90;0.90;;;;;;;18.52;43.62;98937.95;261119;1100;22803;-72
2021/05/28 14:58:17;;;;;;;1.50;1.40;;;;;;;18.80;43.51;98938.08;261120;1098;25916;-73
2021/05/28 15:04:38;;;;;;;;;;;;;;;;;;;;;
2021/05/28 15:10:07;;;;;;;1.58;1.45;;;;;;;18.26;42.97;98928.20;261162;1099;22771;-71
2021/05/28 15:15:56;;;;;;;;;;;;;;;;;;;;;
2021/05/28 15:21:54;;;;;;;2.80;2.55;;;;;;;17.83;44.29;98930.17;261213;1099;25861;-72
2021/05/28 15:27:10;;;;;;;2.30;1.50;;;;;;;17.80;44.47;98922.72;261279;1104;22862;-71
2021/05/28 15:33:14;;;;;;;1.30;1.20;;;;;;;17.70;44.60;98933.97;261327;1104;22810;-72
2021/05/28 15:39:30;;;;;;;;;;;;;;;;;;;;;
2021/05/28 15:45:35;;;;;;;1.50;1.40;;;;;;;17.24;46.20;98934.61;261216;1099;27514;-72
2021/05/28 15:57:40;;;;;;;2.30;2.10;;;;;;;16.30;47.00;98940.09;261208;1104;22917;-71
2021/05/28 16:03:20;;;;;;;2.65;2.45;;;;;;;15.95;48.26;98930.17;261055;1100;26184;-71
2021/05/28 16:15:55;;;;;;;2.55;2.35;;;;;;;15.72;49.54;98937.62;261199;1104;24327;-71
2021/05/28 16:21:44;;;;;;;1.67;1.53;;;;;;;15.63;49.96;98934.14;261286;1104;22803;-72
2021/05/28 16:27:45;;;;;;;1.55;1.45;;;;;;;15.47;50.02;98948.08;261364;1100;22888;-72
2021/05/28 16:41:02;;;;;;;1.80;1.70;;;;;;;14.79;53.18;98947.61;261183;1104;22785;-71
2021/05/28 16:47:00;;;;;;;;;;;;;;;;;;;;;
2021/05/28 16:59:30;;;;;;;1.47;1.37;;;;;;;14.57;53.99;98945.77;261142;1100;22862;-72
2021/05/28 17:12:26;;;;;;;1.97;1.17;;;;;;;14.57;53.96;98945.77;261151;1104;22814;-71
2021/05/28 17:18:19;;;;;;;;;;;;;;;;;;;;;
2021/05/28 17:31:17;;;;;;;;;;;;;;;;;;;;;
2021/05/28 17:38:04;;;;;;;;;;;;;;;;;;;;;
2021/05/28 17:51:21;;;;;;;;;;;;;;;;;;;;;
2021/05/28 17:57:36;;;;;;;3.10;2.70;;;;;;;13.85;55.15;98933.00;261027;1104;22942;-74
2021/05/28 18:03:22;;;;;;;;;;;;;;;;;;;;;
2021/05/28 18:09:32;;;;;;;;;;;;;;;;;;;;;
2021/05/28 18:15:30;;;;;;;;;;;;;;;;;;;;;
2021/05/28 18:20:59;;;;;;;3.63;2.17;;;;;;;13.52;56.11;98948.56;261132;1104;22819;-73
2021/05/28 18:26:36;;;;;;;8.95;6.10;;;;;;;13.45;57.32;98948.19;261042;1104;22757;-72
2021/05/28 18:32:49;;;;;;;3.75;2.35;;;;;;;13.40;58.20;98946.38;261095;1104;22739;-72
2021/05/28 18:38:37;;;;;;;7.20;5.15;;;;;;;13.38;59.16;98943.21;261089;1099;25874;-72
2021/05/28 18:44:22;;;;;;;9.75;6.50;;;;;;;13.41;59.94;98953.36;261068;1104;22744;-72
2021/05/28 18:51:06;;;;;;;9.65;7.75;;;;;;;13.39;61.17;98954.77;260895;1098;25970;-72
2021/05/28 18:58:11;;;;;;;14.50;7.20;;;;;;;13.29;61.44;98955.75;261011;1104;22916;-71
2021/05/28 19:04:22;;;;;;;;;;;;;;;;;;;;;
2021/05/28 19:09:35;;;;;;;8.30;5.55;;;;;;;13.12;62.84;98978.70;261185;1104;23109;-72
2021/05/28 19:21:32;;;;;;;8.15;5.40;;;;;;;13.03;63.30;98988.55;261143;1099;22741;-72
2021/05/28 19:33:20;;;;;;;;;;;;;;;;;;;;;
2021/05/28 19:39:31;;;;;;;7.90;4.50;;;;;;;12.79;64.43;99005.67;261137;1104;22741;-72
2021/05/28 19:44:50;;;;;;;5.83;4.00;;;;;;;12.68;64.67;99003.48;261252;1099;22917;-72
2021/05/28 19:50:34;;;;;;;6.18;4.38;;;;;;;12.60;65.29;99004.95;261216;1100;22768;-72
2021/05/28 19:56:24;;;;;;;;;;;;;;;;;;;;;
2021/05/28 20:01:46;;;;;;;5.65;4.35;;;;;;;12.46;66.08;99010.28;261090;1098;27053;-72
2021/05/28 20:07:24;;;;;;;5.53;4.70;;;;;;;12.38;66.63;99008.27;261098;1104;22765;-72
2021/05/28 20:19:09;;;;;;;5.07;4.57;;;;;;;12.35;67.23;99004.28;261098;1104;22810;-72
2021/05/28 20:24:57;;;;;;;;;;;;;;;;;;;;;
2021/05/28 20:30:29;;;;;;;6.63;5.10;;;;;;;12.26;67.55;99008.75;261048;1104;22819;-72
2021/05/28 20:36:13;;;;;;;6.50;4.77;;;;;;;12.21;67.93;99011.50;261068;1099;22750;-72
2021/05/28 20:42:26;;;;;;;7.20;5.15;;;;;;;12.20;68.07;99010.72;261061;1104;22916;-72
2021/05/28 20:47:57;;;;;;;7.07;5.53;;;;;;;12.17;68.38;98997.84;261158;1099;25816;-73
2021/05/28 20:53:50;;;;;;;;;;;;;;;;;;;;;
2021/05/28 21:00:14;;;;;;;7.33;4.88;;;;;;;12.10;68.47;99006.30;261095;1099;22933;-72
2021/05/28 21:06:44;;;;;;;5.50;4.55;;;;;;;12.08;68.34;99008.47;261062;1099;24541;-72
2021/05/28 21:12:43;;;;;;;5.95;4.35;;;;;;;12.05;68.25;99011.74;261067;1104;22880;-72
2021/05/28 21:33:14;;;;;;;;;;;;;;;;;;;;;
2021/05/28 21:45:05;;;;;;;6.35;4.50;;;;;;;11.72;68.73;99008.95;261155;1100;25636;-72
2021/05/28 21:50:11;;;;;;;6.55;4.35;;;;;;;11.65;69.13;99003.16;261033;1104;22864;-72
2021/05/28 21:56:06;;;;;;;;;;;;;;;;;;;;;
2021/05/28 22:01:44;;;;;;;5.13;4.13;;;;;;;11.54;69.56;99001.70;261039;1098;25878;-71
2021/05/28 22:06:53;;;;;;;6.73;4.90;;;;;;;11.46;69.66;99001.27;261156;1099;27611;-72
2021/05/28 22:12:09;;;;;;;5.17;4.10;;;;;;;11.42;69.87;98997.56;261052;1104;22775;-72
2021/05/28 22:17:52;;;;;;;6.00;4.70;;;;;;;11.36;69.93;98990.67;261076;1098;25986;-72
2021/05/28 22:23:14;;;;;;;35.40;24.73;;;;;;;11.28;70.23;99002.83;261131;1104;24242;-71
2021/05/28 22:37:06;;;;;;;5.05;4.55;;;;;;;11.08;70.84;98998.52;260993;1104;22923;-72
2021/05/28 22:50:00;;;;;;;;;;;;;;;;;;;;;
2021/05/28 22:56:25;;;;;;;4.40;3.85;;;;;;;10.89;71.95;99003.80;261067;1104;22772;-72
2021/05/28 23:02:22;;;;;;;7.40;4.30;;;;;;;10.88;72.11;98991.48;260881;1104;22816;-71
2021/05/28 23:08:19;;;;;;;6.10;4.43;;;;;;;10.83;72.32;99002.27;261093;1104;24308;-73
2021/05/28 23:14:50;;;;;;;6.30;4.43;;;;;;;10.79;72.88;98999.35;261072;1104;22828;-72
2021/05/28 23:20:10;;;;;;;6.60;5.27;;;;;;;10.77;73.13;99001.53;261130;1099;26216;-71
2021/05/28 23:25:40;;;;;;;6.87;5.47;;;;;;;10.75;73.37;98995.64;261021;1100;22916;-72
2021/05/28 23:31:27;;;;;;;6.60;5.00;;;;;;;10.75;73.43;98984.92;261097;1100;22933;-72
2021/05/28 23:37:17;;;;;;;;;;;;;;;;;;;;;
2021/05/28 23:42:47;;;;;;;6.80;5.20;;;;;;;10.77;73.90;98981.95;260936;1097;25992;-72
2021/05/28 23:48:44;;;;;;;6.10;5.50;;;;;;;10.70;74.01;98994.90;261091;1104;22767;-73
2021/05/28 23:54:29;;;;;;;6.67;5.27;;;;;;;10.66;74.20;98989.33;261066;1104;22745;-72
